Time;durP1;ratioP1;P1;durP2;ratioP2;P2;SDS_P1;SDS_P2;PMS_P1;PMS_P2;Temp;Humidity;BMP_temperature;BMP_pressure;BME280_temperature;BME280_humidity;BME280_pressure;Samples;Min_cycle;Max_cycle;Signal;HPM_P1;HPM_P2
2023/07/21 00:00:21;;;;;;;2.60;1.20;;;;;;;;;;627277;23;1255;-78
2023/07/21 00:00:36;;;;;;;1.92;1.30;;;;;;;;;;626314;23;1275;-79
2023/07/21 00:00:52;;;;;;;1.50;1.20;;;;;;;;;;627175;23;776;-78
2023/07/21 00:01:08;;;;;;;1.63;1.23;;;;;;;;;;628414;23;1164;-79
2023/07/21 00:01:23;;;;;;;2.55;1.20;;;;;;;;;;626436;23;898;-78
2023/07/21 00:01:38;;;;;;;4.47;1.30;;;;;;;;;;626635;23;933;-78
2023/07/21 00:01:55;;;;;;;4.80;1.30;;;;;;;;;;629137;23;990;-77
2023/07/21 00:02:11;;;;;;;3.25;1.20;;;;;;;;;;630923;23;803;-79
2023/07/21 00:02:26;;;;;;;3.00;1.30;;;;;;;;;;631934;23;923;-78
2023/07/21 00:02:41;;;;;;;2.65;1.30;;;;;;;;;;631115;23;1213;-78
2023/07/21 00:02:57;;;;;;;2.63;1.30;;;;;;;;;;629004;23;1215;-78
2023/07/21 00:03:12;;;;;;;3.40;1.33;;;;;;;;;;631514;23;1060;-78
2023/07/21 00:03:27;;;;;;;3.83;1.40;;;;;;;;;;629466;23;1219;-78
2023/07/21 00:03:45;;;;;;;4.72;1.50;;;;;;;;;;625611;23;1345;-78
2023/07/21 00:04:00;;;;;;;4.07;1.40;;;;;;;;;;626223;23;995;-79
2023/07/21 00:04:17;;;;;;;3.30;1.30;;;;;;;;;;622574;23;1098;-78
2023/07/21 00:04:32;;;;;;;3.08;1.30;;;;;;;;;;624595;23;876;-78
2023/07/21 00:04:47;;;;;;;3.15;1.40;;;;;;;;;;629670;23;1229;-78
2023/07/21 00:05:03;;;;;;;3.20;1.33;;;;;;;;;;629100;23;1236;-78
2023/07/21 00:05:18;;;;;;;2.40;1.20;;;;;;;;;;626423;23;1928;-78
2023/07/21 00:05:34;;;;;;;1.73;1.13;;;;;;;;;;628628;23;1077;-79
2023/07/21 00:05:49;;;;;;;1.80;1.10;;;;;;;;;;628497;23;1270;-79
2023/07/21 00:06:08;;;;;;;2.75;1.27;;;;;;;;;;628938;23;839;-79
2023/07/21 00:06:24;;;;;;;3.90;1.40;;;;;;;;;;626065;23;1784;-78
2023/07/21 00:06:44;;;;;;;3.33;1.25;;;;;;;;;;627418;23;1294;-79
2023/07/21 00:06:59;;;;;;;2.97;1.30;;;;;;;;;;631300;23;913;-79
2023/07/21 00:07:15;;;;;;;3.23;1.30;;;;;;;;;;629546;23;1207;-79
2023/07/21 00:07:32;;;;;;;2.40;1.20;;;;;;;;;;630996;23;910;-79
2023/07/21 00:07:48;;;;;;;2.25;1.40;;;;;;;;;;626672;23;1282;-80
2023/07/21 00:08:03;;;;;;;2.63;1.40;;;;;;;;;;626786;23;1195;-79
2023/07/21 00:08:19;;;;;;;3.60;1.30;;;;;;;;;;628661;23;870;-80
2023/07/21 00:08:37;;;;;;;3.20;1.20;;;;;;;;;;629145;23;1282;-79
2023/07/21 00:09:13;;;;;;;2.58;1.45;;;;;;;;;;630364;23;1247;-79
2023/07/21 00:09:28;;;;;;;2.25;1.27;;;;;;;;;;628907;23;1152;-79
2023/07/21 00:09:44;;;;;;;2.60;1.40;;;;;;;;;;626005;23;1232;-78
2023/07/21 00:10:00;;;;;;;2.72;1.30;;;;;;;;;;623295;23;1310;-79
2023/07/21 00:10:15;;;;;;;3.20;1.30;;;;;;;;;;624628;23;1259;-79
2023/07/21 00:10:30;;;;;;;3.00;1.23;;;;;;;;;;625176;23;891;-78
2023/07/21 00:10:46;;;;;;;3.08;1.30;;;;;;;;;;625494;23;1312;-79
2023/07/21 00:11:03;;;;;;;2.70;1.50;;;;;;;;;;623981;23;1269;-79
2023/07/21 00:11:18;;;;;;;2.00;1.40;;;;;;;;;;623686;23;887;-79
2023/07/21 00:11:33;;;;;;;2.37;1.20;;;;;;;;;;627319;23;1033;-79
2023/07/21 00:11:48;;;;;;;2.90;1.10;;;;;;;;;;629307;23;1301;-78
2023/07/21 00:12:04;;;;;;;4.73;1.30;;;;;;;;;;633672;23;1239;-78
2023/07/21 00:12:19;;;;;;;5.20;1.38;;;;;;;;;;632914;23;1199;-78
2023/07/21 00:12:37;;;;;;;3.80;1.30;;;;;;;;;;630550;23;1562;-79
2023/07/21 00:12:52;;;;;;;4.40;1.40;;;;;;;;;;626040;23;1486;-80
2023/07/21 00:13:08;;;;;;;4.80;1.40;;;;;;;;;;622526;23;1188;-78
2023/07/21 00:13:24;;;;;;;3.80;1.30;;;;;;;;;;623378;23;1208;-79
2023/07/21 00:13:39;;;;;;;3.05;1.40;;;;;;;;;;623266;23;1605;-79
2023/07/21 00:13:55;;;;;;;4.03;1.40;;;;;;;;;;625799;23;1200;-78
2023/07/21 00:14:11;;;;;;;4.28;1.40;;;;;;;;;;625255;23;787;-79
2023/07/21 00:14:28;;;;;;;2.90;1.40;;;;;;;;;;625807;23;1216;-78
2023/07/21 00:14:43;;;;;;;2.92;1.50;;;;;;;;;;624034;23;1424;-78
2023/07/21 00:14:58;;;;;;;2.70;1.43;;;;;;;;;;624736;23;952;-79
2023/07/21 00:15:17;;;;;;;2.50;1.30;;;;;;;;;;623384;23;1248;-78
2023/07/21 00:15:33;;;;;;;1.88;1.13;;;;;;;;;;626441;23;1243;-78
2023/07/21 00:15:49;;;;;;;2.00;1.30;;;;;;;;;;629132;23;1013;-79
2023/07/21 00:16:04;;;;;;;2.72;1.48;;;;;;;;;;631804;23;862;-78
2023/07/21 00:16:20;;;;;;;3.83;1.50;;;;;;;;;;628142;23;1151;-79
2023/07/21 00:16:35;;;;;;;3.50;1.33;;;;;;;;;;625381;23;1298;-79
2023/07/21 00:16:53;;;;;;;2.73;1.40;;;;;;;;;;628008;23;967;-79
2023/07/21 00:17:08;;;;;;;2.90;1.50;;;;;;;;;;626696;23;1487;-79
2023/07/21 00:17:25;;;;;;;2.33;1.40;;;;;;;;;;627625;23;989;-78
2023/07/21 00:17:40;;;;;;;2.33;1.33;;;;;;;;;;625496;23;1269;-79
2023/07/21 00:17:55;;;;;;;3.60;1.50;;;;;;;;;;625226;23;1378;-78
2023/07/21 00:18:11;;;;;;;4.00;1.57;;;;;;;;;;621699;23;1251;-78
2023/07/21 00:18:26;;;;;;;2.60;1.37;;;;;;;;;;621418;23;1306;-81
2023/07/21 00:18:41;;;;;;;1.63;1.20;;;;;;;;;;621060;23;1281;-79
2023/07/21 00:18:57;;;;;;;2.77;1.30;;;;;;;;;;621253;23;753;-78
2023/07/21 00:19:12;;;;;;;3.07;1.33;;;;;;;;;;623153;23;903;-79
2023/07/21 00:19:27;;;;;;;3.60;1.30;;;;;;;;;;622891;23;1184;-79
2023/07/21 00:19:44;;;;;;;4.40;1.30;;;;;;;;;;625363;23;1144;-79
2023/07/21 00:20:10;;;;;;;4.15;1.40;;;;;;;;;;626704;23;1243;-79
2023/07/21 00:20:25;;;;;;;2.72;1.40;;;;;;;;;;629201;23;922;-79
2023/07/21 00:21:05;;;;;;;2.83;1.40;;;;;;;;;;630145;23;1470;-78
2023/07/21 00:21:22;;;;;;;2.58;1.48;;;;;;;;;;626928;23;919;-78
2023/07/21 00:21:37;;;;;;;2.63;1.30;;;;;;;;;;627189;23;883;-79
2023/07/21 00:21:52;;;;;;;2.75;1.20;;;;;;;;;;627729;23;1304;-79
2023/07/21 00:22:08;;;;;;;2.70;1.33;;;;;;;;;;626290;23;1286;-78
2023/07/21 00:22:23;;;;;;;2.90;1.40;;;;;;;;;;625889;23;953;-79
2023/07/21 00:22:40;;;;;;;2.88;1.45;;;;;;;;;;625432;23;1268;-79
2023/07/21 00:22:55;;;;;;;2.92;1.60;;;;;;;;;;625066;23;930;-79
2023/07/21 00:23:12;;;;;;;3.45;1.50;;;;;;;;;;625803;23;799;-79
2023/07/21 00:23:29;;;;;;;3.63;1.50;;;;;;;;;;624625;23;1417;-79
2023/07/21 00:23:46;;;;;;;3.63;1.50;;;;;;;;;;623691;23;1413;-79
2023/07/21 00:24:02;;;;;;;3.60;1.55;;;;;;;;;;624498;23;1279;-79
2023/07/21 00:24:18;;;;;;;3.27;1.40;;;;;;;;;;625830;23;1086;-79
2023/07/21 00:24:34;;;;;;;2.85;1.33;;;;;;;;;;624640;23;1419;-79
2023/07/21 00:24:49;;;;;;;3.03;1.37;;;;;;;;;;626123;23;1276;-79
2023/07/21 00:25:05;;;;;;;3.42;1.50;;;;;;;;;;626284;23;887;-79
2023/07/21 00:25:21;;;;;;;3.73;1.50;;;;;;;;;;625506;23;1945;-79
2023/07/21 00:25:36;;;;;;;2.63;1.40;;;;;;;;;;625646;23;1300;-79
2023/07/21 00:25:51;;;;;;;3.00;1.40;;;;;;;;;;625844;23;1058;-79
2023/07/21 00:26:07;;;;;;;3.10;1.40;;;;;;;;;;626432;23;1255;-79
2023/07/21 00:26:24;;;;;;;3.67;1.40;;;;;;;;;;625931;23;938;-79
2023/07/21 00:26:39;;;;;;;3.95;1.55;;;;;;;;;;622873;23;1276;-78
2023/07/21 00:26:58;;;;;;;3.25;1.50;;;;;;;;;;622366;23;1208;-79
2023/07/21 00:27:14;;;;;;;3.75;1.45;;;;;;;;;;624137;23;871;-79
2023/07/21 00:27:29;;;;;;;2.83;1.40;;;;;;;;;;626863;23;914;-79
2023/07/21 00:27:44;;;;;;;1.93;1.40;;;;;;;;;;624565;23;1105;-79
2023/07/21 00:28:00;;;;;;;2.20;1.42;;;;;;;;;;627565;23;815;-79
2023/07/21 00:28:17;;;;;;;3.07;1.43;;;;;;;;;;625743;23;1508;-80
2023/07/21 00:28:32;;;;;;;4.25;1.50;;;;;;;;;;626888;23;936;-79
2023/07/21 00:28:48;;;;;;;3.87;1.50;;;;;;;;;;630066;23;1021;-78
2023/07/21 00:29:04;;;;;;;2.58;1.48;;;;;;;;;;628256;23;1373;-78
2023/07/21 00:29:19;;;;;;;2.43;1.40;;;;;;;;;;628070;23;1057;-79
2023/07/21 00:29:35;;;;;;;4.07;1.40;;;;;;;;;;629113;23;1281;-79
2023/07/21 00:29:50;;;;;;;4.32;1.50;;;;;;;;;;627936;23;1232;-80
2023/07/21 00:30:09;;;;;;;2.80;1.40;;;;;;;;;;628021;23;1180;-78
2023/07/21 00:30:24;;;;;;;5.05;1.30;;;;;;;;;;624606;23;1479;-79
2023/07/21 00:30:40;;;;;;;4.90;1.30;;;;;;;;;;625365;23;1196;-78
2023/07/21 00:30:56;;;;;;;2.27;1.40;;;;;;;;;;625971;23;776;-79
2023/07/21 00:31:11;;;;;;;3.28;1.40;;;;;;;;;;627253;23;1297;-79
2023/07/21 00:31:26;;;;;;;2.90;1.30;;;;;;;;;;626818;23;1161;-79
2023/07/21 00:31:46;;;;;;;2.90;1.50;;;;;;;;;;626585;23;1178;-78
2023/07/21 00:32:22;;;;;;;3.80;1.58;;;;;;;;;;626344;23;887;-79
2023/07/21 00:32:40;;;;;;;2.90;1.40;;;;;;;;;;629050;23;1370;-79
2023/07/21 00:32:55;;;;;;;2.72;1.50;;;;;;;;;;629343;23;1010;-79
2023/07/21 00:33:10;;;;;;;3.50;1.50;;;;;;;;;;629506;23;1291;-79
2023/07/21 00:33:25;;;;;;;2.80;1.40;;;;;;;;;;632231;23;946;-79
2023/07/21 00:33:44;;;;;;;2.30;1.40;;;;;;;;;;631952;23;1302;-80
2023/07/21 00:34:00;;;;;;;4.28;1.55;;;;;;;;;;628166;23;1247;-79
2023/07/21 00:34:15;;;;;;;3.80;1.38;;;;;;;;;;626030;23;1469;-79
2023/07/21 00:34:30;;;;;;;2.87;1.43;;;;;;;;;;629048;23;1298;-79
2023/07/21 00:34:46;;;;;;;2.90;1.60;;;;;;;;;;628079;23;842;-78
2023/07/21 00:35:06;;;;;;;3.20;1.50;;;;;;;;;;625956;23;1207;-78
2023/07/21 00:35:22;;;;;;;2.53;1.30;;;;;;;;;;625416;23;1391;-79
2023/07/21 00:35:37;;;;;;;2.13;1.23;;;;;;;;;;624930;23;1073;-79
2023/07/21 00:35:52;;;;;;;3.00;1.30;;;;;;;;;;628164;23;1220;-79
2023/07/21 00:36:08;;;;;;;4.03;1.37;;;;;;;;;;627707;23;1201;-78
2023/07/21 00:36:23;;;;;;;2.85;1.40;;;;;;;;;;624741;23;1223;-79
2023/07/21 00:36:39;;;;;;;2.22;1.45;;;;;;;;;;625071;23;1245;-79
2023/07/21 00:36:56;;;;;;;2.57;1.50;;;;;;;;;;624738;23;1340;-79
2023/07/21 00:37:13;;;;;;;3.38;1.60;;;;;;;;;;625377;23;1274;-79
2023/07/21 00:37:28;;;;;;;4.22;1.65;;;;;;;;;;626235;23;895;-78
2023/07/21 00:37:43;;;;;;;3.27;1.60;;;;;;;;;;626315;23;765;-79
2023/07/21 00:38:01;;;;;;;3.53;1.50;;;;;;;;;;626889;23;1300;-79
2023/07/21 00:38:16;;;;;;;3.70;1.45;;;;;;;;;;629147;23;1273;-79
2023/07/21 00:38:31;;;;;;;2.63;1.20;;;;;;;;;;630698;23;878;-78
2023/07/21 00:38:47;;;;;;;3.00;1.30;;;;;;;;;;632261;23;792;-79
2023/07/21 00:39:03;;;;;;;2.92;1.40;;;;;;;;;;632906;23;886;-79
2023/07/21 00:39:19;;;;;;;2.80;1.50;;;;;;;;;;632128;23;1096;-78
2023/07/21 00:39:34;;;;;;;2.22;1.40;;;;;;;;;;631568;23;1048;-78
2023/07/21 00:39:49;;;;;;;2.77;1.40;;;;;;;;;;631226;23;1045;-78
2023/07/21 00:40:09;;;;;;;3.33;1.50;;;;;;;;;;632488;23;886;-79
2023/07/21 00:40:25;;;;;;;3.65;1.50;;;;;;;;;;635171;23;869;-79
2023/07/21 00:40:41;;;;;;;4.55;1.40;;;;;;;;;;632024;23;1366;-78
2023/07/21 00:40:56;;;;;;;3.53;1.40;;;;;;;;;;631127;23;884;-78
2023/07/21 00:41:12;;;;;;;3.03;1.40;;;;;;;;;;628599;23;1236;-79
2023/07/21 00:41:27;;;;;;;3.75;1.45;;;;;;;;;;628432;23;1184;-78
2023/07/21 00:41:42;;;;;;;4.10;1.50;;;;;;;;;;628537;23;1200;-78
2023/07/21 00:41:58;;;;;;;3.40;1.50;;;;;;;;;;627790;23;962;-80
2023/07/21 00:42:13;;;;;;;3.70;1.35;;;;;;;;;;628104;23;1218;-79
2023/07/21 00:42:28;;;;;;;3.57;1.33;;;;;;;;;;629600;23;1291;-78
2023/07/21 00:42:45;;;;;;;3.07;1.37;;;;;;;;;;628855;23;1258;-79
2023/07/21 00:43:00;;;;;;;3.28;1.45;;;;;;;;;;628986;23;1251;-79
2023/07/21 00:43:18;;;;;;;2.13;1.30;;;;;;;;;;629381;23;1175;-78
2023/07/21 00:43:34;;;;;;;2.63;1.30;;;;;;;;;;626079;23;1311;-78
2023/07/21 00:43:49;;;;;;;2.20;1.40;;;;;;;;;;629344;23;1290;-78
2023/07/21 00:44:07;;;;;;;2.72;1.40;;;;;;;;;;625767;23;1207;-79
2023/07/21 00:44:22;;;;;;;2.72;1.33;;;;;;;;;;625521;23;1283;-79
2023/07/21 00:44:37;;;;;;;2.03;1.40;;;;;;;;;;625735;23;1346;-78
2023/07/21 00:44:52;;;;;;;2.83;1.40;;;;;;;;;;628953;23;1172;-78
2023/07/21 00:45:08;;;;;;;2.80;1.40;;;;;;;;;;629098;23;911;-79
2023/07/21 00:45:24;;;;;;;2.28;1.40;;;;;;;;;;628928;23;1958;-78
2023/07/21 00:45:39;;;;;;;2.38;1.40;;;;;;;;;;628154;23;792;-79
2023/07/21 00:45:55;;;;;;;3.70;1.60;;;;;;;;;;626771;23;1294;-78
2023/07/21 00:46:10;;;;;;;3.40;1.50;;;;;;;;;;628640;23;1241;-78
2023/07/21 00:46:26;;;;;;;2.28;1.40;;;;;;;;;;629533;23;1334;-78
2023/07/21 00:46:41;;;;;;;2.63;1.43;;;;;;;;;;626129;23;1224;-78
2023/07/21 00:46:57;;;;;;;3.00;1.40;;;;;;;;;;628823;23;1334;-78
2023/07/21 00:47:13;;;;;;;4.03;1.45;;;;;;;;;;628668;23;947;-78
2023/07/21 00:47:29;;;;;;;3.33;1.40;;;;;;;;;;628353;23;1207;-79
2023/07/21 00:47:45;;;;;;;2.42;1.42;;;;;;;;;;628428;23;1164;-78
2023/07/21 00:48:03;;;;;;;4.17;1.50;;;;;;;;;;627944;23;1255;-78
2023/07/21 00:48:19;;;;;;;4.32;1.60;;;;;;;;;;631636;23;2074;-79
2023/07/21 00:48:34;;;;;;;2.45;1.48;;;;;;;;;;631676;23;1356;-78
2023/07/21 00:48:50;;;;;;;2.63;1.30;;;;;;;;;;628991;23;1373;-79
2023/07/21 00:49:05;;;;;;;2.90;1.40;;;;;;;;;;629266;23;819;-78
2023/07/21 00:49:20;;;;;;;3.83;1.55;;;;;;;;;;629507;23;792;-78
2023/07/21 00:49:37;;;;;;;3.63;1.40;;;;;;;;;;626509;23;1262;-78
2023/07/21 00:49:52;;;;;;;3.35;1.40;;;;;;;;;;626460;23;860;-79
2023/07/21 00:50:09;;;;;;;2.85;1.42;;;;;;;;;;626269;23;975;-78
2023/07/21 00:50:24;;;;;;;2.17;1.35;;;;;;;;;;626000;23;1363;-78
2023/07/21 00:50:53;;;;;;;2.57;1.30;;;;;;;;;;629510;23;914;-78
2023/07/21 00:51:10;;;;;;;3.10;1.30;;;;;;;;;;631537;23;1076;-78
2023/07/21 00:51:25;;;;;;;2.53;1.20;;;;;;;;;;632164;23;815;-78
2023/07/21 00:51:40;;;;;;;2.05;1.30;;;;;;;;;;631748;23;1209;-79
2023/07/21 00:51:56;;;;;;;2.33;1.37;;;;;;;;;;628202;23;1314;-79
2023/07/21 00:52:17;;;;;;;2.17;1.40;;;;;;;;;;625303;23;1195;-79
2023/07/21 00:52:32;;;;;;;2.20;1.40;;;;;;;;;;625345;23;1354;-78
2023/07/21 00:52:48;;;;;;;2.60;1.42;;;;;;;;;;623516;23;1279;-79
2023/07/21 00:53:05;;;;;;;2.23;1.30;;;;;;;;;;625056;23;1298;-79
2023/07/21 00:53:20;;;;;;;1.88;1.20;;;;;;;;;;625599;23;819;-80
2023/07/21 00:53:36;;;;;;;3.13;1.27;;;;;;;;;;626846;23;933;-78
2023/07/21 00:53:51;;;;;;;2.90;1.30;;;;;;;;;;630498;23;1209;-79
2023/07/21 00:54:06;;;;;;;2.33;1.37;;;;;;;;;;631916;23;908;-80
2023/07/21 00:54:22;;;;;;;2.13;1.30;;;;;;;;;;629489;23;1129;-79
2023/07/21 00:54:38;;;;;;;2.42;1.35;;;;;;;;;;628321;23;1267;-78
2023/07/21 00:54:53;;;;;;;2.93;1.40;;;;;;;;;;625774;23;1160;-78
2023/07/21 00:55:09;;;;;;;2.58;1.40;;;;;;;;;;625485;23;985;-78
2023/07/21 00:55:25;;;;;;;2.27;1.30;;;;;;;;;;625455;23;1271;-79
2023/07/21 00:55:45;;;;;;;2.03;1.30;;;;;;;;;;623736;23;1236;-78
2023/07/21 00:56:01;;;;;;;2.97;1.50;;;;;;;;;;621629;23;1141;-79
2023/07/21 00:56:17;;;;;;;2.67;1.42;;;;;;;;;;625207;23;1373;-79
2023/07/21 00:56:32;;;;;;;2.03;1.30;;;;;;;;;;627752;23;883;-79
2023/07/21 00:56:48;;;;;;;3.00;1.27;;;;;;;;;;628028;23;981;-78
2023/07/21 00:57:04;;;;;;;3.35;1.33;;;;;;;;;;627687;23;883;-79
2023/07/21 00:57:59;;;;;;;3.10;1.42;;;;;;;;;;628535;23;1176;-79
2023/07/21 00:58:16;;;;;;;3.17;1.50;;;;;;;;;;633524;23;1172;-79
2023/07/21 00:58:32;;;;;;;2.40;1.55;;;;;;;;;;631610;23;1317;-79
2023/07/21 00:58:48;;;;;;;2.20;1.40;;;;;;;;;;628541;23;1257;-79
2023/07/21 00:59:03;;;;;;;2.45;1.33;;;;;;;;;;628624;23;1661;-79
2023/07/21 00:59:19;;;;;;;2.20;1.30;;;;;;;;;;624115;23;1187;-79
2023/07/21 00:59:34;;;;;;;2.90;1.30;;;;;;;;;;625267;23;883;-79
2023/07/21 00:59:50;;;;;;;3.10;1.30;;;;;;;;;;622495;23;1233;-79
2023/07/21 01:00:07;;;;;;;1.75;1.30;;;;;;;;;;621930;23;1286;-79
2023/07/21 01:00:23;;;;;;;3.20;1.20;;;;;;;;;;624233;23;868;-79
2023/07/21 01:00:40;;;;;;;3.80;1.30;;;;;;;;;;625344;23;1319;-79
2023/07/21 01:00:55;;;;;;;2.28;1.40;;;;;;;;;;623921;23;1430;-79
2023/07/21 01:01:11;;;;;;;2.13;1.27;;;;;;;;;;623622;23;1303;-78
2023/07/21 01:01:26;;;;;;;1.97;1.20;;;;;;;;;;625720;23;791;-79
2023/07/21 01:01:41;;;;;;;4.23;1.30;;;;;;;;;;625926;23;1319;-78
2023/07/21 01:01:58;;;;;;;6.50;1.30;;;;;;;;;;626437;23;1214;-79
2023/07/21 01:02:14;;;;;;;3.92;1.40;;;;;;;;;;628598;23;824;-78
2023/07/21 01:02:29;;;;;;;1.92;1.42;;;;;;;;;;626713;23;1327;-79
2023/07/21 01:02:49;;;;;;;2.20;1.40;;;;;;;;;;628799;23;1292;-79
2023/07/21 01:03:05;;;;;;;2.03;1.25;;;;;;;;;;631657;23;1072;-78
2023/07/21 01:03:21;;;;;;;2.15;1.13;;;;;;;;;;631814;23;906;-78
2023/07/21 01:03:39;;;;;;;2.53;1.20;;;;;;;;;;629707;23;943;-78
2023/07/21 01:03:54;;;;;;;2.88;1.33;;;;;;;;;;632142;23;926;-78
2023/07/21 01:04:10;;;;;;;2.70;1.33;;;;;;;;;;628417;23;1381;-79
2023/07/21 01:04:25;;;;;;;3.20;1.30;;;;;;;;;;627239;23;1164;-79
2023/07/21 01:05:01;;;;;;;2.83;1.23;;;;;;;;;;627303;23;1359;-78
2023/07/21 01:05:17;;;;;;;2.90;1.30;;;;;;;;;;624700;23;1933;-77
2023/07/21 01:05:36;;;;;;;4.70;1.50;;;;;;;;;;625805;23;1378;-79
2023/07/21 01:05:53;;;;;;;5.40;1.40;;;;;;;;;;625767;23;1279;-78
2023/07/21 01:06:10;;;;;;;5.82;1.45;;;;;;;;;;628633;23;898;-79
2023/07/21 01:06:27;;;;;;;2.75;1.50;;;;;;;;;;625377;23;1360;-79
2023/07/21 01:06:45;;;;;;;2.88;1.50;;;;;;;;;;623027;23;1462;-78
2023/07/21 01:07:03;;;;;;;2.85;1.40;;;;;;;;;;620634;23;1345;-79
2023/07/21 01:07:19;;;;;;;2.28;1.42;;;;;;;;;;619410;23;1485;-79
2023/07/21 01:07:34;;;;;;;2.93;1.40;;;;;;;;;;622411;23;887;-79
2023/07/21 01:07:50;;;;;;;2.35;1.33;;;;;;;;;;625243;23;1080;-79
2023/07/21 01:08:06;;;;;;;2.10;1.40;;;;;;;;;;622004;23;1268;-79
2023/07/21 01:08:21;;;;;;;3.70;1.50;;;;;;;;;;623960;23;1216;-78
2023/07/21 01:08:37;;;;;;;3.00;1.40;;;;;;;;;;625864;23;1426;-79
2023/07/21 01:08:57;;;;;;;2.15;1.30;;;;;;;;;;626154;23;1334;-79
2023/07/21 01:09:13;;;;;;;2.42;1.40;;;;;;;;;;629278;23;1210;-79
2023/07/21 01:09:29;;;;;;;2.30;1.45;;;;;;;;;;630567;23;850;-79
2023/07/21 01:09:45;;;;;;;2.00;1.30;;;;;;;;;;629963;23;835;-79
2023/07/21 01:10:02;;;;;;;2.25;1.30;;;;;;;;;;627321;23;1526;-79
2023/07/21 01:10:20;;;;;;;2.00;1.30;;;;;;;;;;627524;23;903;-79
2023/07/21 01:10:37;;;;;;;3.22;1.25;;;;;;;;;;628255;23;1397;-78
2023/07/21 01:10:55;;;;;;;4.07;1.60;;;;;;;;;;631034;23;836;-79
2023/07/21 01:11:10;;;;;;;3.38;1.50;;;;;;;;;;630780;23;965;-79
2023/07/21 01:11:28;;;;;;;1.90;1.20;;;;;;;;;;631125;23;1640;-79
2023/07/21 01:11:43;;;;;;;1.45;1.30;;;;;;;;;;631288;23;827;-78
2023/07/21 01:11:59;;;;;;;3.13;1.40;;;;;;;;;;631659;23;1190;-78
2023/07/21 01:12:14;;;;;;;4.30;1.30;;;;;;;;;;628195;23;1326;-78
2023/07/21 01:12:30;;;;;;;3.40;1.30;;;;;;;;;;629648;23;1001;-78
2023/07/21 01:12:48;;;;;;;2.10;1.20;;;;;;;;;;631978;23;894;-79
2023/07/21 01:13:04;;;;;;;1.73;1.33;;;;;;;;;;631144;23;849;-78
2023/07/21 01:13:21;;;;;;;1.67;1.25;;;;;;;;;;630239;23;1368;-79
2023/07/21 01:13:36;;;;;;;1.90;1.20;;;;;;;;;;627856;23;895;-80
2023/07/21 01:13:54;;;;;;;3.08;1.35;;;;;;;;;;632203;23;1211;-78
2023/07/21 01:14:09;;;;;;;3.10;1.40;;;;;;;;;;632861;23;1266;-79
2023/07/21 01:14:25;;;;;;;2.75;1.38;;;;;;;;;;631532;23;1466;-79
2023/07/21 01:14:41;;;;;;;2.85;1.45;;;;;;;;;;628548;23;1274;-79
2023/07/21 01:14:56;;;;;;;2.37;1.40;;;;;;;;;;628495;23;1316;-79
2023/07/21 01:15:11;;;;;;;1.95;1.30;;;;;;;;;;627804;23;1033;-78
2023/07/21 01:15:28;;;;;;;2.50;1.30;;;;;;;;;;627994;23;1288;-78
2023/07/21 01:15:48;;;;;;;2.80;1.15;;;;;;;;;;624817;23;1247;-78
2023/07/21 01:16:05;;;;;;;3.95;1.33;;;;;;;;;;626866;23;867;-78
2023/07/21 01:16:23;;;;;;;3.88;1.52;;;;;;;;;;628540;23;899;-78
2023/07/21 01:16:43;;;;;;;4.10;1.40;;;;;;;;;;630655;23;949;-78
2023/07/21 01:16:59;;;;;;;3.70;1.48;;;;;;;;;;630662;23;1246;-79
2023/07/21 01:17:26;;;;;;;3.15;1.42;;;;;;;;;;632198;23;1334;-76
2023/07/21 01:17:42;;;;;;;3.60;1.30;;;;;;;;;;628760;23;1417;-76
2023/07/21 01:17:58;;;;;;;3.35;1.42;;;;;;;;;;628385;23;1049;-75
2023/07/21 01:18:16;;;;;;;3.90;1.60;;;;;;;;;;628114;23;1310;-76
2023/07/21 01:18:53;;;;;;;3.50;1.60;;;;;;;;;;629238;23;847;-75
2023/07/21 01:19:14;;;;;;;3.97;1.60;;;;;;;;;;629087;23;1163;-75
2023/07/21 01:19:50;;;;;;;3.08;1.60;;;;;;;;;;630903;23;1040;-76
2023/07/21 01:20:08;;;;;;;5.03;1.50;;;;;;;;;;628171;23;1449;-76
2023/07/21 01:20:27;;;;;;;4.10;1.60;;;;;;;;;;627243;23;1472;-76
2023/07/21 01:20:43;;;;;;;3.70;1.63;;;;;;;;;;625739;23;1373;-77
2023/07/21 01:21:00;;;;;;;3.42;1.60;;;;;;;;;;622431;23;1271;-75
2023/07/21 01:21:30;;;;;;;1.80;1.50;;;;;;;;;;621791;23;1475;-75
2023/07/21 01:22:11;;;;;;;4.95;1.73;;;;;;;;;;621763;23;1358;-76
2023/07/21 01:22:46;;;;;;;2.88;1.60;;;;;;;;;;628045;23;919;-75
2023/07/21 01:23:16;;;;;;;2.33;1.50;;;;;;;;;;628657;23;1341;-75
2023/07/21 01:23:47;;;;;;;4.00;1.70;;;;;;;;;;628496;23;1085;-76
2023/07/21 01:24:36;;;;;;;3.97;1.60;;;;;;;;;;631049;23;859;-76
2023/07/21 01:24:52;;;;;;;3.17;1.67;;;;;;;;;;623036;23;1129;-75
2023/07/21 01:25:10;;;;;;;3.53;1.77;;;;;;;;;;625784;23;1009;-75
2023/07/21 01:25:28;;;;;;;3.50;1.80;;;;;;;;;;625164;23;1959;-76
2023/07/21 01:25:45;;;;;;;4.13;1.60;;;;;;;;;;629272;23;1156;-75
2023/07/21 01:26:20;;;;;;;4.13;1.70;;;;;;;;;;634794;23;1087;-76
2023/07/21 01:26:39;;;;;;;5.75;1.92;;;;;;;;;;629345;23;1420;-75
2023/07/21 01:26:55;;;;;;;3.63;2.00;;;;;;;;;;630940;23;1393;-75
2023/07/21 01:27:12;;;;;;;2.97;1.90;;;;;;;;;;630273;23;926;-76
2023/07/21 01:27:27;;;;;;;2.85;1.75;;;;;;;;;;627187;23;1294;-75
2023/07/21 01:27:46;;;;;;;2.23;1.50;;;;;;;;;;627403;23;796;-75
2023/07/21 01:28:04;;;;;;;3.00;1.50;;;;;;;;;;624842;23;1458;-76
2023/07/21 01:28:41;;;;;;;3.22;1.70;;;;;;;;;;624226;23;1030;-75
2023/07/21 01:28:56;;;;;;;3.63;1.77;;;;;;;;;;631029;23;1072;-75
2023/07/21 01:29:12;;;;;;;2.58;1.80;;;;;;;;;;631193;23;1229;-76
2023/07/21 01:29:30;;;;;;;3.10;1.90;;;;;;;;;;628219;23;1517;-75
2023/07/21 01:29:45;;;;;;;2.97;1.90;;;;;;;;;;627954;23;824;-75
2023/07/21 01:30:02;;;;;;;3.83;1.97;;;;;;;;;;630832;23;812;-76
2023/07/21 01:30:19;;;;;;;4.43;1.88;;;;;;;;;;631081;23;1087;-76
2023/07/21 01:30:35;;;;;;;3.20;1.90;;;;;;;;;;627674;23;1223;-75
2023/07/21 01:30:53;;;;;;;2.92;1.90;;;;;;;;;;628250;23;982;-75
2023/07/21 01:31:08;;;;;;;3.88;1.80;;;;;;;;;;629967;23;912;-75
2023/07/21 01:31:24;;;;;;;3.23;1.83;;;;;;;;;;630262;23;1312;-75
2023/07/21 01:31:40;;;;;;;3.35;1.90;;;;;;;;;;628132;23;1227;-75
2023/07/21 01:31:56;;;;;;;4.00;1.90;;;;;;;;;;625703;23;1444;-76
2023/07/21 01:32:14;;;;;;;3.17;1.90;;;;;;;;;;622135;23;1158;-75
2023/07/21 01:32:30;;;;;;;3.15;1.92;;;;;;;;;;623526;23;879;-76
2023/07/21 01:32:48;;;;;;;3.45;1.90;;;;;;;;;;622020;23;1322;-76
2023/07/21 01:33:05;;;;;;;4.28;1.77;;;;;;;;;;622897;23;1203;-75
2023/07/21 01:33:20;;;;;;;3.35;1.70;;;;;;;;;;624603;23;1400;-75
2023/07/21 01:33:37;;;;;;;2.33;1.70;;;;;;;;;;627788;23;1203;-75
2023/07/21 01:33:55;;;;;;;2.65;1.73;;;;;;;;;;628492;23;1231;-76
2023/07/21 01:34:14;;;;;;;2.83;1.77;;;;;;;;;;628224;23;1259;-75
2023/07/21 01:34:31;;;;;;;2.60;1.70;;;;;;;;;;628540;23;851;-75
2023/07/21 01:34:46;;;;;;;2.92;1.92;;;;;;;;;;628604;23;1203;-75
2023/07/21 01:35:02;;;;;;;3.30;2.00;;;;;;;;;;624762;23;1279;-75
2023/07/21 01:35:18;;;;;;;3.10;1.90;;;;;;;;;;624800;23;832;-76
2023/07/21 01:35:35;;;;;;;3.08;1.88;;;;;;;;;;627426;23;832;-75
2023/07/21 01:35:51;;;;;;;4.13;2.03;;;;;;;;;;627101;23;1527;-75
2023/07/21 01:36:07;;;;;;;3.70;2.00;;;;;;;;;;628872;23;843;-75
2023/07/21 01:36:23;;;;;;;2.83;1.80;;;;;;;;;;628504;23;1021;-75
2023/07/21 01:36:39;;;;;;;2.97;1.90;;;;;;;;;;626649;23;1288;-75
2023/07/21 01:36:55;;;;;;;2.85;1.88;;;;;;;;;;628979;23;1488;-76
2023/07/21 01:37:12;;;;;;;2.77;1.80;;;;;;;;;;630885;23;1129;-75
2023/07/21 01:37:27;;;;;;;2.63;1.90;;;;;;;;;;631393;23;1385;-76
2023/07/21 01:37:45;;;;;;;4.47;2.00;;;;;;;;;;630659;23;834;-76
2023/07/21 01:38:02;;;;;;;5.15;2.25;;;;;;;;;;630999;23;917;-75
2023/07/21 01:38:20;;;;;;;3.75;2.20;;;;;;;;;;630977;23;1246;-75
2023/07/21 01:38:37;;;;;;;3.97;2.10;;;;;;;;;;630086;23;843;-75
2023/07/21 01:38:53;;;;;;;4.40;2.00;;;;;;;;;;630881;23;839;-75
2023/07/21 01:39:09;;;;;;;4.25;2.10;;;;;;;;;;634330;23;859;-75
2023/07/21 01:39:25;;;;;;;3.97;2.10;;;;;;;;;;634096;23;792;-75
2023/07/21 01:39:41;;;;;;;2.90;1.85;;;;;;;;;;630220;23;1353;-75
2023/07/21 01:39:58;;;;;;;2.10;1.80;;;;;;;;;;631153;23;1242;-76
2023/07/21 01:40:15;;;;;;;2.70;1.92;;;;;;;;;;628983;23;1428;-75
2023/07/21 01:40:31;;;;;;;2.83;1.90;;;;;;;;;;627899;23;1267;-76
2023/07/21 01:40:48;;;;;;;3.58;2.00;;;;;;;;;;627711;23;1013;-75
2023/07/21 01:41:05;;;;;;;3.70;2.10;;;;;;;;;;628037;23;1251;-75
2023/07/21 01:41:20;;;;;;;3.45;2.10;;;;;;;;;;627299;23;887;-76
2023/07/21 01:41:37;;;;;;;3.40;2.10;;;;;;;;;;627673;23;1290;-75
2023/07/21 01:41:52;;;;;;;3.58;2.10;;;;;;;;;;625400;23;1387;-76
2023/07/21 01:42:08;;;;;;;3.40;1.90;;;;;;;;;;628770;23;1295;-75
2023/07/21 01:42:29;;;;;;;2.80;1.80;;;;;;;;;;628491;23;768;-76
2023/07/21 01:42:46;;;;;;;2.20;1.58;;;;;;;;;;624511;23;935;-75
2023/07/21 01:43:01;;;;;;;3.40;1.83;;;;;;;;;;621319;23;1404;-76
2023/07/21 01:43:17;;;;;;;3.35;2.00;;;;;;;;;;621347;23;1317;-75
2023/07/21 01:43:33;;;;;;;3.53;2.00;;;;;;;;;;621515;23;1190;-75
2023/07/21 01:43:49;;;;;;;3.43;2.00;;;;;;;;;;623105;23;822;-75
2023/07/21 01:44:05;;;;;;;3.63;2.08;;;;;;;;;;626785;23;824;-75
2023/07/21 01:44:23;;;;;;;3.50;2.10;;;;;;;;;;623742;23;1293;-75
2023/07/21 01:44:39;;;;;;;3.35;2.10;;;;;;;;;;625764;23;1088;-75
2023/07/21 01:44:54;;;;;;;3.77;2.10;;;;;;;;;;628908;23;806;-76
2023/07/21 01:45:10;;;;;;;3.40;2.17;;;;;;;;;;630068;23;835;-75
2023/07/21 01:45:46;;;;;;;3.17;2.13;;;;;;;;;;632409;23;1928;-76
2023/07/21 01:46:02;;;;;;;3.67;1.80;;;;;;;;;;633447;23;1173;-75
2023/07/21 01:46:17;;;;;;;3.33;1.80;;;;;;;;;;636178;22;894;-75
2023/07/21 01:46:32;;;;;;;2.50;1.80;;;;;;;;;;635076;23;1196;-75
2023/07/21 01:46:48;;;;;;;2.60;1.80;;;;;;;;;;634614;23;1484;-75
2023/07/21 01:47:05;;;;;;;3.10;1.87;;;;;;;;;;634093;23;830;-75